sensor_id;sensor_type;location;lat;lon;timestamp;temperature;humidity
22795;DHT22;11564;50.920;11.612;2023-02-25T00:02:24;2.70;99.90
22795;DHT22;11564;50.920;11.612;2023-02-25T00:04:49;2.70;99.90
22795;DHT22;11564;50.920;11.612;2023-02-25T00:07:15;2.60;99.90
22795;DHT22;11564;50.920;11.612;2023-02-25T00:09:41;2.60;99.90
22795;DHT22;11564;50.920;11.612;2023-02-25T00:12:06;2.50;99.90
22795;DHT22;11564;50.920;11.612;2023-02-25T00:14:32;2.50;99.90
22795;DHT22;11564;50.920;11.612;2023-02-25T00:16:58;2.50;99.90
22795;DHT22;11564;50.920;11.612;2023-02-25T00:19:24;2.40;99.90
22795;DHT22;11564;50.920;11.612;2023-02-25T00:21:49;2.40;99.90
22795;DHT22;11564;50.920;11.612;2023-02-25T00:24:15;2.30;99.90
22795;DHT22;11564;50.920;11.612;2023-02-25T00:26:41;2.40;99.90
22795;DHT22;11564;50.920;11.612;2023-02-25T00:29:06;2.40;99.90
22795;DHT22;11564;50.920;11.612;2023-02-25T00:31:32;2.40;99.90
22795;DHT22;11564;50.920;11.612;2023-02-25T00:33:57;2.40;99.90
22795;DHT22;11564;50.920;11.612;2023-02-25T00:36:25;2.50;99.90
22795;DHT22;11564;50.920;11.612;2023-02-25T00:38:52;2.50;99.90
22795;DHT22;11564;50.920;11.612;2023-02-25T00:41:22;2.50;99.90
22795;DHT22;11564;50.920;11.612;2023-02-25T00:43:59;2.50;99.90
22795;DHT22;11564;50.920;11.612;2023-02-25T00:46:25;2.60;99.90
22795;DHT22;11564;50.920;11.612;2023-02-25T00:48:51;2.60;99.90
22795;DHT22;11564;50.920;11.612;2023-02-25T00:51:20;2.60;99.90
22795;DHT22;11564;50.920;11.612;2023-02-25T00:53:46;2.70;99.90
22795;DHT22;11564;50.920;11.612;2023-02-25T00:56:13;2.80;99.90
22795;DHT22;11564;50.920;11.612;2023-02-25T00:58:41;2.80;99.90
22795;DHT22;11564;50.920;11.612;2023-02-25T01:03:40;2.80;99.90
22795;DHT22;11564;50.920;11.612;2023-02-25T01:06:09;2.90;99.90
22795;DHT22;11564;50.920;11.612;2023-02-25T01:08:35;3.00;99.90
22795;DHT22;11564;50.920;11.612;2023-02-25T01:11:10;3.00;99.90
22795;DHT22;11564;50.920;11.612;2023-02-25T01:13:36;2.90;99.90
22795;DHT22;11564;50.920;11.612;2023-02-25T01:16:12;2.90;99.90
22795;DHT22;11564;50.920;11.612;2023-02-25T01:18:38;2.90;99.90
22795;DHT22;11564;50.920;11.612;2023-02-25T01:21:05;2.90;99.90
22795;DHT22;11564;50.920;11.612;2023-02-25T01:23:30;2.90;99.90
22795;DHT22;11564;50.920;11.612;2023-02-25T01:25:56;2.90;99.90
22795;DHT22;11564;50.920;11.612;2023-02-25T01:28:21;2.90;99.90
22795;DHT22;11564;50.920;11.612;2023-02-25T01:30:47;3.00;99.90
22795;DHT22;11564;50.920;11.612;2023-02-25T01:33:13;2.90;99.90
22795;DHT22;11564;50.920;11.612;2023-02-25T01:35:38;2.50;99.90
22795;DHT22;11564;50.920;11.612;2023-02-25T01:38:04;2.40;99.90
22795;DHT22;11564;50.920;11.612;2023-02-25T01:40:29;2.30;99.90
22795;DHT22;11564;50.920;11.612;2023-02-25T01:42:55;2.30;99.90
22795;DHT22;11564;50.920;11.612;2023-02-25T01:45:24;2.20;99.90
22795;DHT22;11564;50.920;11.612;2023-02-25T01:47:57;2.10;99.90
22795;DHT22;11564;50.920;11.612;2023-02-25T01:50:28;2.10;99.90
22795;DHT22;11564;50.920;11.612;2023-02-25T01:52:56;2.20;99.90
22795;DHT22;11564;50.920;11.612;2023-02-25T01:55:23;2.20;99.90
22795;DHT22;11564;50.920;11.612;2023-02-25T01:57:49;2.20;99.90
22795;DHT22;11564;50.920;11.612;2023-02-25T02:00:15;2.20;99.90
22795;DHT22;11564;50.920;11.612;2023-02-25T02:02:46;2.10;99.90
22795;DHT22;11564;50.920;11.612;2023-02-25T02:05:13;2.20;99.90
22795;DHT22;11564;50.920;11.612;2023-02-25T02:07:39;2.20;99.90
22795;DHT22;11564;50.920;11.612;2023-02-25T02:10:06;2.20;99.90
22795;DHT22;11564;50.920;11.612;2023-02-25T02:12:35;2.30;99.90
22795;DHT22;11564;50.920;11.612;2023-02-25T02:15:05;2.30;99.90
22795;DHT22;11564;50.920;11.612;2023-02-25T02:20:11;2.30;99.90
22795;DHT22;11564;50.920;11.612;2023-02-25T02:36:23;2.60;99.90
22795;DHT22;11564;50.920;11.612;2023-02-25T02:41:45;2.70;99.90
22795;DHT22;11564;50.920;11.612;2023-02-25T02:44:26;2.80;99.90
22795;DHT22;11564;50.920;11.612;2023-02-25T02:46:58;2.70;99.90
22795;DHT22;11564;50.920;11.612;2023-02-25T02:49:38;2.70;99.90
22795;DHT22;11564;50.920;11.612;2023-02-25T02:52:13;2.70;99.90
22795;DHT22;11564;50.920;11.612;2023-02-25T02:54:43;2.70;99.90
22795;DHT22;11564;50.920;11.612;2023-02-25T02:57:13;2.70;99.90
22795;DHT22;11564;50.920;11.612;2023-02-25T02:59:44;2.70;99.90
22795;DHT22;11564;50.920;11.612;2023-02-25T03:02:17;2.80;99.90
22795;DHT22;11564;50.920;11.612;2023-02-25T03:04:47;2.70;99.90
22795;DHT22;11564;50.920;11.612;2023-02-25T03:07:14;2.70;99.90
22795;DHT22;11564;50.920;11.612;2023-02-25T03:09:48;2.70;99.90
22795;DHT22;11564;50.920;11.612;2023-02-25T03:12:14;2.70;99.90
22795;DHT22;11564;50.920;11.612;2023-02-25T03:14:40;2.70;99.90
22795;DHT22;11564;50.920;11.612;2023-02-25T03:17:15;2.80;99.90
22795;DHT22;11564;50.920;11.612;2023-02-25T03:20:02;2.80;99.90
22795;DHT22;11564;50.920;11.612;2023-02-25T03:22:40;2.80;99.90
22795;DHT22;11564;50.920;11.612;2023-02-25T03:25:20;2.80;99.90
22795;DHT22;11564;50.920;11.612;2023-02-25T03:27:49;2.80;99.90
22795;DHT22;11564;50.920;11.612;2023-02-25T03:30:38;2.90;99.90
22795;DHT22;11564;50.920;11.612;2023-02-25T03:33:15;2.90;99.90
22795;DHT22;11564;50.920;11.612;2023-02-25T03:35:44;2.90;99.90
22795;DHT22;11564;50.920;11.612;2023-02-25T03:38:14;2.90;99.90
22795;DHT22;11564;50.920;11.612;2023-02-25T03:40:41;2.90;99.90
22795;DHT22;11564;50.920;11.612;2023-02-25T03:43:14;3.00;99.90
22795;DHT22;11564;50.920;11.612;2023-02-25T03:45:42;3.00;99.90
22795;DHT22;11564;50.920;11.612;2023-02-25T03:48:10;3.00;99.90
22795;DHT22;11564;50.920;11.612;2023-02-25T03:50:42;3.00;99.90
22795;DHT22;11564;50.920;11.612;2023-02-25T03:53:10;3.00;99.90
22795;DHT22;11564;50.920;11.612;2023-02-25T03:55:35;3.00;99.90
22795;DHT22;11564;50.920;11.612;2023-02-25T03:58:01;3.00;99.90
22795;DHT22;11564;50.920;11.612;2023-02-25T04:00:32;3.00;99.90
22795;DHT22;11564;50.920;11.612;2023-02-25T04:02:58;3.00;99.90
22795;DHT22;11564;50.920;11.612;2023-02-25T04:05:24;3.00;99.90
22795;DHT22;11564;50.920;11.612;2023-02-25T04:07:54;3.00;99.90
22795;DHT22;11564;50.920;11.612;2023-02-25T04:10:20;3.00;99.90
22795;DHT22;11564;50.920;11.612;2023-02-25T04:12:47;3.00;99.90
22795;DHT22;11564;50.920;11.612;2023-02-25T04:15:15;3.00;99.90
22795;DHT22;11564;50.920;11.612;2023-02-25T04:17:41;3.00;99.90
22795;DHT22;11564;50.920;11.612;2023-02-25T04:20:07;3.00;99.90
22795;DHT22;11564;50.920;11.612;2023-02-25T04:22:33;3.00;99.90
22795;DHT22;11564;50.920;11.612;2023-02-25T04:24:59;2.90;99.90
22795;DHT22;11564;50.920;11.612;2023-02-25T04:27:24;2.90;99.90
22795;DHT22;11564;50.920;11.612;2023-02-25T04:29:51;2.90;99.90
22795;DHT22;11564;50.920;11.612;2023-02-25T04:32:17;2.90;99.90
22795;DHT22;11564;50.920;11.612;2023-02-25T04:34:43;3.00;99.90
22795;DHT22;11564;50.920;11.612;2023-02-25T04:37:08;2.90;99.90
22795;DHT22;11564;50.920;11.612;2023-02-25T04:39:35;3.00;99.90
22795;DHT22;11564;50.920;11.612;2023-02-25T04:42:01;2.90;99.90
22795;DHT22;11564;50.920;11.612;2023-02-25T04:44:27;3.00;99.90
22795;DHT22;11564;50.920;11.612;2023-02-25T04:46:52;3.10;99.90
22795;DHT22;11564;50.920;11.612;2023-02-25T04:49:20;3.10;99.90
22795;DHT22;11564;50.920;11.612;2023-02-25T04:51:47;3.00;99.90
22795;DHT22;11564;50.920;11.612;2023-02-25T04:54:14;3.10;99.90
22795;DHT22;11564;50.920;11.612;2023-02-25T04:56:40;3.10;99.90
22795;DHT22;11564;50.920;11.612;2023-02-25T04:59:06;3.10;99.90
22795;DHT22;11564;50.920;11.612;2023-02-25T05:01:32;3.20;99.90
22795;DHT22;11564;50.920;11.612;2023-02-25T05:03:58;3.20;99.90
22795;DHT22;11564;50.920;11.612;2023-02-25T05:06:26;3.10;99.90
22795;DHT22;11564;50.920;11.612;2023-02-25T05:08:53;3.10;99.90
22795;DHT22;11564;50.920;11.612;2023-02-25T05:11:19;3.20;99.90
22795;DHT22;11564;50.920;11.612;2023-02-25T05:13:46;3.20;99.90
22795;DHT22;11564;50.920;11.612;2023-02-25T05:16:13;3.20;99.90
22795;DHT22;11564;50.920;11.612;2023-02-25T05:18:44;3.20;99.90
22795;DHT22;11564;50.920;11.612;2023-02-25T05:21:19;3.20;99.90
22795;DHT22;11564;50.920;11.612;2023-02-25T05:23:46;3.10;99.90
22795;DHT22;11564;50.920;11.612;2023-02-25T05:26:13;3.10;99.90
22795;DHT22;11564;50.920;11.612;2023-02-25T05:28:39;3.10;99.90
22795;DHT22;11564;50.920;11.612;2023-02-25T05:31:06;3.10;99.90
22795;DHT22;11564;50.920;11.612;2023-02-25T05:33:32;3.10;99.90
22795;DHT22;11564;50.920;11.612;2023-02-25T05:35:57;3.10;99.90
22795;DHT22;11564;50.920;11.612;2023-02-25T05:38:23;3.10;99.90
22795;DHT22;11564;50.920;11.612;2023-02-25T05:40:50;3.10;99.90
22795;DHT22;11564;50.920;11.612;2023-02-25T05:43:16;2.90;99.90
22795;DHT22;11564;50.920;11.612;2023-02-25T05:45:41;2.90;99.90
22795;DHT22;11564;50.920;11.612;2023-02-25T05:48:07;2.90;99.90
22795;DHT22;11564;50.920;11.612;2023-02-25T05:50:32;2.70;99.90
22795;DHT22;11564;50.920;11.612;2023-02-25T05:53:06;2.70;99.90
22795;DHT22;11564;50.920;11.612;2023-02-25T05:55:31;2.70;99.90
22795;DHT22;11564;50.920;11.612;2023-02-25T05:57:57;2.60;99.90
22795;DHT22;11564;50.920;11.612;2023-02-25T06:00:22;2.60;99.90
22795;DHT22;11564;50.920;11.612;2023-02-25T06:02:48;2.60;99.90
22795;DHT22;11564;50.920;11.612;2023-02-25T06:05:14;2.60;99.90
22795;DHT22;11564;50.920;11.612;2023-02-25T06:07:39;2.60;99.90
22795;DHT22;11564;50.920;11.612;2023-02-25T06:10:05;2.60;99.90
22795;DHT22;11564;50.920;11.612;2023-02-25T06:12:32;2.60;99.90
22795;DHT22;11564;50.920;11.612;2023-02-25T06:14:59;2.60;99.90
22795;DHT22;11564;50.920;11.612;2023-02-25T06:17:24;2.50;99.90
22795;DHT22;11564;50.920;11.612;2023-02-25T06:19:51;2.60;99.90
22795;DHT22;11564;50.920;11.612;2023-02-25T06:22:21;2.50;99.90
22795;DHT22;11564;50.920;11.612;2023-02-25T06:24:46;2.50;99.90
22795;DHT22;11564;50.920;11.612;2023-02-25T06:27:14;2.50;99.90
22795;DHT22;11564;50.920;11.612;2023-02-25T06:29:40;2.60;99.90
22795;DHT22;11564;50.920;11.612;2023-02-25T06:32:10;2.60;99.90
22795;DHT22;11564;50.920;11.612;2023-02-25T06:34:36;2.50;99.90
22795;DHT22;11564;50.920;11.612;2023-02-25T06:37:02;2.50;99.90
22795;DHT22;11564;50.920;11.612;2023-02-25T06:39:28;2.50;99.90
22795;DHT22;11564;50.920;11.612;2023-02-25T06:41:53;2.50;99.90
22795;DHT22;11564;50.920;11.612;2023-02-25T06:44:19;2.60;99.90
22795;DHT22;11564;50.920;11.612;2023-02-25T06:46:45;2.50;99.90
22795;DHT22;11564;50.920;11.612;2023-02-25T06:49:10;2.50;99.90
22795;DHT22;11564;50.920;11.612;2023-02-25T06:51:37;2.50;99.90
22795;DHT22;11564;50.920;11.612;2023-02-25T06:54:03;2.60;99.90
22795;DHT22;11564;50.920;11.612;2023-02-25T06:56:29;2.60;99.90
22795;DHT22;11564;50.920;11.612;2023-02-25T06:58:55;2.60;99.90
22795;DHT22;11564;50.920;11.612;2023-02-25T07:01:24;2.60;99.90
22795;DHT22;11564;50.920;11.612;2023-02-25T07:03:51;2.60;99.90
22795;DHT22;11564;50.920;11.612;2023-02-25T07:06:17;2.60;99.90
22795;DHT22;11564;50.920;11.612;2023-02-25T07:08:44;2.60;99.90
22795;DHT22;11564;50.920;11.612;2023-02-25T07:13:42;2.70;99.90
22795;DHT22;11564;50.920;11.612;2023-02-25T07:16:09;2.70;99.90
22795;DHT22;11564;50.920;11.612;2023-02-25T07:18:35;2.80;99.90
22795;DHT22;11564;50.920;11.612;2023-02-25T07:21:00;3.00;99.90
22795;DHT22;11564;50.920;11.612;2023-02-25T07:23:26;3.00;99.90
22795;DHT22;11564;50.920;11.612;2023-02-25T07:25:51;3.00;99.90
22795;DHT22;11564;50.920;11.612;2023-02-25T07:28:17;3.10;99.90
22795;DHT22;11564;50.920;11.612;2023-02-25T07:30:44;3.10;99.90
22795;DHT22;11564;50.920;11.612;2023-02-25T07:33:11;3.20;99.90
22795;DHT22;11564;50.920;11.612;2023-02-25T07:35:36;3.10;99.90
22795;DHT22;11564;50.920;11.612;2023-02-25T07:38:02;3.10;99.90
22795;DHT22;11564;50.920;11.612;2023-02-25T07:40:27;3.10;99.90
22795;DHT22;11564;50.920;11.612;2023-02-25T07:42:53;3.00;99.90
22795;DHT22;11564;50.920;11.612;2023-02-25T07:45:19;3.20;99.90
22795;DHT22;11564;50.920;11.612;2023-02-25T07:47:44;3.10;99.90
22795;DHT22;11564;50.920;11.612;2023-02-25T07:50:11;3.20;99.90
22795;DHT22;11564;50.920;11.612;2023-02-25T07:52:37;3.20;99.90
22795;DHT22;11564;50.920;11.612;2023-02-25T07:55:04;3.20;99.90
22795;DHT22;11564;50.920;11.612;2023-02-25T07:57:29;3.20;99.90
22795;DHT22;11564;50.920;11.612;2023-02-25T07:59:56;3.20;99.90
22795;DHT22;11564;50.920;11.612;2023-02-25T08:02:23;3.10;99.90
22795;DHT22;11564;50.920;11.612;2023-02-25T08:04:49;3.20;99.90
22795;DHT22;11564;50.920;11.612;2023-02-25T08:07:15;3.20;99.90
22795;DHT22;11564;50.920;11.612;2023-02-25T08:09:41;3.20;99.90
22795;DHT22;11564;50.920;11.612;2023-02-25T08:12:07;3.20;99.90
22795;DHT22;11564;50.920;11.612;2023-02-25T08:14:33;3.20;99.90
22795;DHT22;11564;50.920;11.612;2023-02-25T08:16:59;3.20;99.90
22795;DHT22;11564;50.920;11.612;2023-02-25T08:19:26;3.30;99.90
22795;DHT22;11564;50.920;11.612;2023-02-25T08:21:52;3.20;99.90
22795;DHT22;11564;50.920;11.612;2023-02-25T08:24:19;3.10;99.90
22795;DHT22;11564;50.920;11.612;2023-02-25T08:26:45;3.10;99.90
22795;DHT22;11564;50.920;11.612;2023-02-25T08:29:11;3.10;99.90
22795;DHT22;11564;50.920;11.612;2023-02-25T08:31:37;3.00;99.90
22795;DHT22;11564;50.920;11.612;2023-02-25T08:34:03;3.10;99.90
22795;DHT22;11564;50.920;11.612;2023-02-25T08:36:30;3.30;99.90
22795;DHT22;11564;50.920;11.612;2023-02-25T08:38:57;3.40;99.90
22795;DHT22;11564;50.920;11.612;2023-02-25T08:41:25;3.40;99.90
22795;DHT22;11564;50.920;11.612;2023-02-25T08:43:52;3.50;99.90
22795;DHT22;11564;50.920;11.612;2023-02-25T08:46:20;3.50;99.90
22795;DHT22;11564;50.920;11.612;2023-02-25T08:48:48;3.70;99.90
22795;DHT22;11564;50.920;11.612;2023-02-25T08:51:14;3.60;99.90
22795;DHT22;11564;50.920;11.612;2023-02-25T08:53:40;3.60;99.90
22795;DHT22;11564;50.920;11.612;2023-02-25T08:56:07;3.80;99.90
22795;DHT22;11564;50.920;11.612;2023-02-25T08:58:34;3.60;99.90
22795;DHT22;11564;50.920;11.612;2023-02-25T09:01:00;3.70;99.90
22795;DHT22;11564;50.920;11.612;2023-02-25T09:03:25;3.80;99.90
22795;DHT22;11564;50.920;11.612;2023-02-25T09:05:55;3.60;99.90
22795;DHT22;11564;50.920;11.612;2023-02-25T09:08:20;3.80;99.90
22795;DHT22;11564;50.920;11.612;2023-02-25T09:10:46;3.80;99.90
22795;DHT22;11564;50.920;11.612;2023-02-25T09:13:12;3.80;99.90
22795;DHT22;11564;50.920;11.612;2023-02-25T09:15:39;3.80;99.90
22795;DHT22;11564;50.920;11.612;2023-02-25T09:18:05;3.80;99.90
22795;DHT22;11564;50.920;11.612;2023-02-25T09:20:30;3.90;99.90
22795;DHT22;11564;50.920;11.612;2023-02-25T09:22:56;3.90;99.90
22795;DHT22;11564;50.920;11.612;2023-02-25T09:25:24;3.80;99.90
22795;DHT22;11564;50.920;11.612;2023-02-25T09:27:50;3.90;99.90
22795;DHT22;11564;50.920;11.612;2023-02-25T09:30:16;3.90;99.90
22795;DHT22;11564;50.920;11.612;2023-02-25T09:32:41;4.00;99.90
22795;DHT22;11564;50.920;11.612;2023-02-25T09:35:07;3.80;99.90
22795;DHT22;11564;50.920;11.612;2023-02-25T09:37:34;3.90;99.90
22795;DHT22;11564;50.920;11.612;2023-02-25T09:39:59;3.80;99.90
22795;DHT22;11564;50.920;11.612;2023-02-25T09:42:48;3.90;99.90
22795;DHT22;11564;50.920;11.612;2023-02-25T09:45:18;3.80;99.90
22795;DHT22;11564;50.920;11.612;2023-02-25T09:47:58;4.10;99.90
22795;DHT22;11564;50.920;11.612;2023-02-25T09:50:29;3.90;99.90
22795;DHT22;11564;50.920;11.612;2023-02-25T09:53:04;3.80;99.90
22795;DHT22;11564;50.920;11.612;2023-02-25T09:55:39;3.60;99.90
22795;DHT22;11564;50.920;11.612;2023-02-25T09:58:16;3.50;99.90
22795;DHT22;11564;50.920;11.612;2023-02-25T10:01:10;3.40;99.90
22795;DHT22;11564;50.920;11.612;2023-02-25T10:03:58;3.30;99.90
22795;DHT22;11564;50.920;11.612;2023-02-25T10:06:34;3.20;99.90
22795;DHT22;11564;50.920;11.612;2023-02-25T10:14:45;2.30;99.90
22795;DHT22;11564;50.920;11.612;2023-02-25T10:25:48;1.30;99.90
22795;DHT22;11564;50.920;11.612;2023-02-25T10:28:18;1.20;99.90
22795;DHT22;11564;50.920;11.612;2023-02-25T10:33:39;1.40;99.90
22795;DHT22;11564;50.920;11.612;2023-02-25T10:36:22;1.60;99.90
22795;DHT22;11564;50.920;11.612;2023-02-25T10:38:51;1.80;99.90
22795;DHT22;11564;50.920;11.612;2023-02-25T10:41:18;1.90;99.90
22795;DHT22;11564;50.920;11.612;2023-02-25T10:43:48;1.80;99.90
22795;DHT22;11564;50.920;11.612;2023-02-25T10:49:02;2.10;99.90
22795;DHT22;11564;50.920;11.612;2023-02-25T10:51:37;2.40;99.90
22795;DHT22;11564;50.920;11.612;2023-02-25T10:54:05;2.80;99.90
22795;DHT22;11564;50.920;11.612;2023-02-25T10:56:43;2.80;99.90
22795;DHT22;11564;50.920;11.612;2023-02-25T10:59:34;3.10;99.90
22795;DHT22;11564;50.920;11.612;2023-02-25T11:02:00;3.40;99.90
22795;DHT22;11564;50.920;11.612;2023-02-25T11:04:36;3.20;99.90
22795;DHT22;11564;50.920;11.612;2023-02-25T11:07:30;3.50;99.90
22795;DHT22;11564;50.920;11.612;2023-02-25T11:10:15;3.30;99.90
22795;DHT22;11564;50.920;11.612;2023-02-25T11:17:47;3.20;99.90
22795;DHT22;11564;50.920;11.612;2023-02-25T11:20:26;3.30;99.90
22795;DHT22;11564;50.920;11.612;2023-02-25T11:22:54;3.30;99.90
22795;DHT22;11564;50.920;11.612;2023-02-25T11:25:41;3.40;99.90
22795;DHT22;11564;50.920;11.612;2023-02-25T11:28:22;3.50;99.90
22795;DHT22;11564;50.920;11.612;2023-02-25T11:30:50;3.20;99.90
22795;DHT22;11564;50.920;11.612;2023-02-25T11:33:24;3.00;99.90
22795;DHT22;11564;50.920;11.612;2023-02-25T11:35:58;3.00;99.90
22795;DHT22;11564;50.920;11.612;2023-02-25T11:38:28;2.90;99.90
22795;DHT22;11564;50.920;11.612;2023-02-25T11:40:56;2.70;99.90
22795;DHT22;11564;50.920;11.612;2023-02-25T11:43:25;2.70;99.90
22795;DHT22;11564;50.920;11.612;2023-02-25T11:45:55;2.90;99.90
22795;DHT22;11564;50.920;11.612;2023-02-25T11:49:14;3.10;99.90
22795;DHT22;11564;50.920;11.612;2023-02-25T11:52:41;3.10;99.90
22795;DHT22;11564;50.920;11.612;2023-02-25T12:09:27;4.00;99.90
22795;DHT22;11564;50.920;11.612;2023-02-25T12:20:58;4.00;99.90
22795;DHT22;11564;50.920;11.612;2023-02-25T12:40:37;4.10;99.90
22795;DHT22;11564;50.920;11.612;2023-02-25T12:46:04;4.10;99.90
22795;DHT22;11564;50.920;11.612;2023-02-25T12:57:26;7.20;99.90
22795;DHT22;11564;50.920;11.612;2023-02-25T13:00:30;7.90;99.90
22795;DHT22;11564;50.920;11.612;2023-02-25T13:03:24;7.50;99.90
22795;DHT22;11564;50.920;11.612;2023-02-25T13:08:58;5.80;99.90
22795;DHT22;11564;50.920;11.612;2023-02-25T13:14:24;5.60;99.90
22795;DHT22;11564;50.920;11.612;2023-02-25T13:25:17;2.10;99.90
22795;DHT22;11564;50.920;11.612;2023-02-25T13:28:00;2.00;99.90
22795;DHT22;11564;50.920;11.612;2023-02-25T13:30:58;1.40;99.90
22795;DHT22;11564;50.920;11.612;2023-02-25T13:33:52;0.90;99.90
22795;DHT22;11564;50.920;11.612;2023-02-25T13:47:51;0.20;99.90
22795;DHT22;11564;50.920;11.612;2023-02-25T13:50:42;0.00;99.90
22795;DHT22;11564;50.920;11.612;2023-02-25T14:01:43;0.20;99.90
22795;DHT22;11564;50.920;11.612;2023-02-25T14:07:21;0.60;99.90
22795;DHT22;11564;50.920;11.612;2023-02-25T14:12:48;1.00;99.90
22795;DHT22;11564;50.920;11.612;2023-02-25T14:18:44;1.20;99.90
22795;DHT22;11564;50.920;11.612;2023-02-25T14:21:59;1.20;99.90
22795;DHT22;11564;50.920;11.612;2023-02-25T14:24:45;1.20;99.90
22795;DHT22;11564;50.920;11.612;2023-02-25T14:35:42;1.40;99.90
22795;DHT22;11564;50.920;11.612;2023-02-25T14:38:21;1.50;99.90
22795;DHT22;11564;50.920;11.612;2023-02-25T14:41:08;1.00;99.90
22795;DHT22;11564;50.920;11.612;2023-02-25T14:43:37;1.00;99.90
22795;DHT22;11564;50.920;11.612;2023-02-25T14:46:06;1.10;99.90
22795;DHT22;11564;50.920;11.612;2023-02-25T14:48:42;2.00;99.90
22795;DHT22;11564;50.920;11.612;2023-02-25T14:54:34;2.10;99.90
22795;DHT22;11564;50.920;11.612;2023-02-25T15:14:23;0.40;99.90
22795;DHT22;11564;50.920;11.612;2023-02-25T15:22:27;0.30;99.90
22795;DHT22;11564;50.920;11.612;2023-02-25T15:27:52;0.40;99.90
22795;DHT22;11564;50.920;11.612;2023-02-25T15:30:23;0.40;99.90
22795;DHT22;11564;50.920;11.612;2023-02-25T15:42:58;0.80;99.90
22795;DHT22;11564;50.920;11.612;2023-02-25T16:06:13;0.80;99.90
22795;DHT22;11564;50.920;11.612;2023-02-25T16:09:11;0.80;99.90
22795;DHT22;11564;50.920;11.612;2023-02-25T16:11:38;0.90;99.90
22795;DHT22;11564;50.920;11.612;2023-02-25T16:14:30;0.80;99.90
22795;DHT22;11564;50.920;11.612;2023-02-25T16:17:04;0.70;99.90
22795;DHT22;11564;50.920;11.612;2023-02-25T16:19:34;0.50;99.90
22795;DHT22;11564;50.920;11.612;2023-02-25T16:22:06;0.60;99.90
22795;DHT22;11564;50.920;11.612;2023-02-25T16:24:36;0.60;99.90
22795;DHT22;11564;50.920;11.612;2023-02-25T16:30:15;0.50;99.90
22795;DHT22;11564;50.920;11.612;2023-02-25T16:38:23;0.40;99.90
22795;DHT22;11564;50.920;11.612;2023-02-25T16:40:51;0.40;99.90
22795;DHT22;11564;50.920;11.612;2023-02-25T16:43:22;0.40;99.90
22795;DHT22;11564;50.920;11.612;2023-02-25T16:46:03;0.40;99.90
22795;DHT22;11564;50.920;11.612;2023-02-25T16:48:33;0.30;99.90
22795;DHT22;11564;50.920;11.612;2023-02-25T16:51:12;0.40;99.90
22795;DHT22;11564;50.920;11.612;2023-02-25T16:53:43;0.40;99.90
22795;DHT22;11564;50.920;11.612;2023-02-25T16:56:19;0.40;99.90
22795;DHT22;11564;50.920;11.612;2023-02-25T16:59:15;0.50;99.90
22795;DHT22;11564;50.920;11.612;2023-02-25T17:01:57;0.40;99.90
22795;DHT22;11564;50.920;11.612;2023-02-25T17:04:28;0.40;99.90
22795;DHT22;11564;50.920;11.612;2023-02-25T17:07:06;0.40;99.90
22795;DHT22;11564;50.920;11.612;2023-02-25T17:09:32;0.40;99.90
22795;DHT22;11564;50.920;11.612;2023-02-25T17:12:00;0.40;99.90
22795;DHT22;11564;50.920;11.612;2023-02-25T17:14:27;0.50;99.90
22795;DHT22;11564;50.920;11.612;2023-02-25T17:16:55;0.40;99.90
22795;DHT22;11564;50.920;11.612;2023-02-25T17:19:24;0.50;99.90
22795;DHT22;11564;50.920;11.612;2023-02-25T17:39:15;0.40;99.90
22795;DHT22;11564;50.920;11.612;2023-02-25T17:49:14;0.40;99.90
22795;DHT22;11564;50.920;11.612;2023-02-25T17:51:42;0.40;99.90
22795;DHT22;11564;50.920;11.612;2023-02-25T17:54:15;0.40;99.90
22795;DHT22;11564;50.920;11.612;2023-02-25T17:56:43;0.40;99.90
22795;DHT22;11564;50.920;11.612;2023-02-25T18:04:38;0.40;99.90
22795;DHT22;11564;50.920;11.612;2023-02-25T18:09:52;0.40;99.90
22795;DHT22;11564;50.920;11.612;2023-02-25T18:12:34;0.50;99.90
22795;DHT22;11564;50.920;11.612;2023-02-25T18:15:03;0.40;99.90
22795;DHT22;11564;50.920;11.612;2023-02-25T18:17:35;0.40;99.90
22795;DHT22;11564;50.920;11.612;2023-02-25T18:20:03;0.40;99.90
22795;DHT22;11564;50.920;11.612;2023-02-25T18:25:07;0.50;99.90
22795;DHT22;11564;50.920;11.612;2023-02-25T18:27:52;0.40;99.90
22795;DHT22;11564;50.920;11.612;2023-02-25T18:30:20;0.50;99.90
22795;DHT22;11564;50.920;11.612;2023-02-25T18:32:47;0.50;99.90
22795;DHT22;11564;50.920;11.612;2023-02-25T18:35:13;0.50;99.90
22795;DHT22;11564;50.920;11.612;2023-02-25T18:37:40;0.40;99.90
22795;DHT22;11564;50.920;11.612;2023-02-25T18:40:09;0.40;99.90
22795;DHT22;11564;50.920;11.612;2023-02-25T18:42:39;0.40;99.90
22795;DHT22;11564;50.920;11.612;2023-02-25T18:45:16;0.30;99.90
22795;DHT22;11564;50.920;11.612;2023-02-25T18:47:42;0.30;99.90
22795;DHT22;11564;50.920;11.612;2023-02-25T18:50:08;0.30;99.90
22795;DHT22;11564;50.920;11.612;2023-02-25T18:52:34;0.30;99.90
22795;DHT22;11564;50.920;11.612;2023-02-25T18:55:00;0.30;99.90
22795;DHT22;11564;50.920;11.612;2023-02-25T18:57:25;0.20;99.90
22795;DHT22;11564;50.920;11.612;2023-02-25T18:59:52;0.20;99.90
22795;DHT22;11564;50.920;11.612;2023-02-25T19:05:22;0.20;99.90
22795;DHT22;11564;50.920;11.612;2023-02-25T19:07:50;0.20;99.90
22795;DHT22;11564;50.920;11.612;2023-02-25T19:10:18;0.20;99.90
22795;DHT22;11564;50.920;11.612;2023-02-25T19:12:46;0.20;99.90
22795;DHT22;11564;50.920;11.612;2023-02-25T19:15:17;0.00;99.90
22795;DHT22;11564;50.920;11.612;2023-02-25T19:17:43;-0.10;99.90
22795;DHT22;11564;50.920;11.612;2023-02-25T19:20:11;-0.10;99.90
22795;DHT22;11564;50.920;11.612;2023-02-25T19:22:41;0.00;99.90
22795;DHT22;11564;50.920;11.612;2023-02-25T19:27:41;-0.10;99.90
22795;DHT22;11564;50.920;11.612;2023-02-25T19:30:12;-0.20;99.90
22795;DHT22;11564;50.920;11.612;2023-02-25T19:32:39;-0.20;99.90
22795;DHT22;11564;50.920;11.612;2023-02-25T19:35:06;-0.20;99.90
22795;DHT22;11564;50.920;11.612;2023-02-25T19:37:36;-0.30;99.90
22795;DHT22;11564;50.920;11.612;2023-02-25T19:40:02;-0.30;99.90
22795;DHT22;11564;50.920;11.612;2023-02-25T19:42:29;-0.30;99.90
22795;DHT22;11564;50.920;11.612;2023-02-25T19:44:54;-0.30;99.90
22795;DHT22;11564;50.920;11.612;2023-02-25T19:47:20;-0.30;99.90
22795;DHT22;11564;50.920;11.612;2023-02-25T19:49:45;-0.40;99.90
22795;DHT22;11564;50.920;11.612;2023-02-25T19:52:12;-0.30;99.90
22795;DHT22;11564;50.920;11.612;2023-02-25T19:54:39;-0.30;99.90
22795;DHT22;11564;50.920;11.612;2023-02-25T19:57:05;-0.30;99.90
22795;DHT22;11564;50.920;11.612;2023-02-25T19:59:31;-0.30;99.90
22795;DHT22;11564;50.920;11.612;2023-02-25T20:01:57;-0.20;99.90
22795;DHT22;11564;50.920;11.612;2023-02-25T20:04:22;-0.20;99.90
22795;DHT22;11564;50.920;11.612;2023-02-25T20:06:48;-0.20;99.90
22795;DHT22;11564;50.920;11.612;2023-02-25T20:09:14;-0.10;99.90
22795;DHT22;11564;50.920;11.612;2023-02-25T20:11:40;-0.10;99.90